sensor_id;sensor_type;location;lat;lon;timestamp;temperature;humidity
14359;DHT22;7263;49.418;11.064;2022-10-16T00:00:41;15.70;99.90
14359;DHT22;7263;49.418;11.064;2022-10-16T00:03:09;15.70;99.90
14359;DHT22;7263;49.418;11.064;2022-10-16T00:05:39;15.70;99.90
14359;DHT22;7263;49.418;11.064;2022-10-16T00:08:07;15.70;99.90
14359;DHT22;7263;49.418;11.064;2022-10-16T00:10:36;15.70;99.90
14359;DHT22;7263;49.418;11.064;2022-10-16T00:13:03;15.60;99.90
14359;DHT22;7263;49.418;11.064;2022-10-16T00:17:57;15.60;99.90
14359;DHT22;7263;49.418;11.064;2022-10-16T00:22:51;15.60;99.90
14359;DHT22;7263;49.418;11.064;2022-10-16T00:25:18;15.60;99.90
14359;DHT22;7263;49.418;11.064;2022-10-16T00:27:46;15.60;99.90
14359;DHT22;7263;49.418;11.064;2022-10-16T00:32:40;15.50;99.90
14359;DHT22;7263;49.418;11.064;2022-10-16T00:37:34;15.50;99.90
14359;DHT22;7263;49.418;11.064;2022-10-16T00:42:28;15.50;99.90
14359;DHT22;7263;49.418;11.064;2022-10-16T00:44:57;15.50;99.90
14359;DHT22;7263;49.418;11.064;2022-10-16T00:47:26;15.40;99.90
14359;DHT22;7263;49.418;11.064;2022-10-16T00:49:58;15.40;99.90
14359;DHT22;7263;49.418;11.064;2022-10-16T00:54:53;15.30;99.90
14359;DHT22;7263;49.418;11.064;2022-10-16T00:59:48;15.30;99.90
14359;DHT22;7263;49.418;11.064;2022-10-16T01:02:17;15.30;99.90
14359;DHT22;7263;49.418;11.064;2022-10-16T01:04:45;15.30;99.90
14359;DHT22;7263;49.418;11.064;2022-10-16T01:07:20;15.20;99.90
14359;DHT22;7263;49.418;11.064;2022-10-16T01:10:00;15.20;99.90
14359;DHT22;7263;49.418;11.064;2022-10-16T01:12:36;15.20;99.90
14359;DHT22;7263;49.418;11.064;2022-10-16T01:15:10;15.20;99.90
14359;DHT22;7263;49.418;11.064;2022-10-16T01:17:43;15.20;99.90
14359;DHT22;7263;49.418;11.064;2022-10-16T01:22:59;15.20;99.90
14359;DHT22;7263;49.418;11.064;2022-10-16T01:28:25;15.20;99.90
14359;DHT22;7263;49.418;11.064;2022-10-16T01:30:56;15.20;99.90
14359;DHT22;7263;49.418;11.064;2022-10-16T01:33:28;15.20;99.90
14359;DHT22;7263;49.418;11.064;2022-10-16T01:35:59;15.30;99.90
14359;DHT22;7263;49.418;11.064;2022-10-16T01:38:31;15.30;99.90
14359;DHT22;7263;49.418;11.064;2022-10-16T01:41:01;15.30;99.90
14359;DHT22;7263;49.418;11.064;2022-10-16T01:43:36;15.20;99.90
14359;DHT22;7263;49.418;11.064;2022-10-16T01:46:05;15.30;99.90
14359;DHT22;7263;49.418;11.064;2022-10-16T01:48:33;15.30;99.90
14359;DHT22;7263;49.418;11.064;2022-10-16T01:51:03;15.20;99.90
14359;DHT22;7263;49.418;11.064;2022-10-16T01:53:32;15.30;99.90
14359;DHT22;7263;49.418;11.064;2022-10-16T01:56:00;15.30;99.90
14359;DHT22;7263;49.418;11.064;2022-10-16T01:58:31;15.20;99.90
14359;DHT22;7263;49.418;11.064;2022-10-16T02:01:02;15.30;99.90
14359;DHT22;7263;49.418;11.064;2022-10-16T02:03:29;15.30;99.90
14359;DHT22;7263;49.418;11.064;2022-10-16T02:05:58;15.40;99.90
14359;DHT22;7263;49.418;11.064;2022-10-16T02:08:28;15.40;99.90
14359;DHT22;7263;49.418;11.064;2022-10-16T02:13:27;15.30;99.90
14359;DHT22;7263;49.418;11.064;2022-10-16T02:15:58;15.40;99.90
14359;DHT22;7263;49.418;11.064;2022-10-16T02:18:25;15.40;99.90
14359;DHT22;7263;49.418;11.064;2022-10-16T02:20:59;15.40;99.90
14359;DHT22;7263;49.418;11.064;2022-10-16T02:23:32;15.40;99.90
14359;DHT22;7263;49.418;11.064;2022-10-16T02:26:03;15.40;99.90
14359;DHT22;7263;49.418;11.064;2022-10-16T02:28:35;15.40;99.90
14359;DHT22;7263;49.418;11.064;2022-10-16T02:31:09;15.40;99.90
14359;DHT22;7263;49.418;11.064;2022-10-16T02:33:38;15.40;99.90
14359;DHT22;7263;49.418;11.064;2022-10-16T02:36:07;15.40;99.90
14359;DHT22;7263;49.418;11.064;2022-10-16T02:41:03;15.30;99.90
14359;DHT22;7263;49.418;11.064;2022-10-16T02:48:27;15.30;99.90
14359;DHT22;7263;49.418;11.064;2022-10-16T02:50:54;15.30;99.90
14359;DHT22;7263;49.418;11.064;2022-10-16T02:55:47;15.30;99.90
14359;DHT22;7263;49.418;11.064;2022-10-16T02:58:14;15.30;99.90
14359;DHT22;7263;49.418;11.064;2022-10-16T03:05:37;15.10;99.90
14359;DHT22;7263;49.418;11.064;2022-10-16T03:08:04;15.10;99.90
14359;DHT22;7263;49.418;11.064;2022-10-16T03:22:49;15.10;99.90
14359;DHT22;7263;49.418;11.064;2022-10-16T03:27:43;15.00;99.90
14359;DHT22;7263;49.418;11.064;2022-10-16T03:30:10;15.10;99.90
14359;DHT22;7263;49.418;11.064;2022-10-16T03:32:37;15.00;99.90
14359;DHT22;7263;49.418;11.064;2022-10-16T03:35:05;15.00;99.90
14359;DHT22;7263;49.418;11.064;2022-10-16T03:37:31;15.00;99.90
14359;DHT22;7263;49.418;11.064;2022-10-16T03:40:00;15.00;99.90
14359;DHT22;7263;49.418;11.064;2022-10-16T03:42:26;15.00;99.90
14359;DHT22;7263;49.418;11.064;2022-10-16T03:44:53;15.00;99.90
14359;DHT22;7263;49.418;11.064;2022-10-16T03:49:49;14.90;99.90
14359;DHT22;7263;49.418;11.064;2022-10-16T03:52:15;15.00;99.90
14359;DHT22;7263;49.418;11.064;2022-10-16T03:57:11;15.00;99.90
14359;DHT22;7263;49.418;11.064;2022-10-16T04:11:53;15.10;99.90
14359;DHT22;7263;49.418;11.064;2022-10-16T04:14:21;15.10;99.90
14359;DHT22;7263;49.418;11.064;2022-10-16T04:26:36;15.10;99.90
14359;DHT22;7263;49.418;11.064;2022-10-16T04:29:03;15.10;99.90
14359;DHT22;7263;49.418;11.064;2022-10-16T04:31:32;15.00;99.90
14359;DHT22;7263;49.418;11.064;2022-10-16T04:36:26;15.00;99.90
14359;DHT22;7263;49.418;11.064;2022-10-16T04:38:53;14.90;99.90
14359;DHT22;7263;49.418;11.064;2022-10-16T04:41:20;14.90;99.90
14359;DHT22;7263;49.418;11.064;2022-10-16T04:46:14;14.80;99.90
14359;DHT22;7263;49.418;11.064;2022-10-16T04:48:42;14.80;99.90
14359;DHT22;7263;49.418;11.064;2022-10-16T04:53:36;14.80;99.90
14359;DHT22;7263;49.418;11.064;2022-10-16T04:56:03;14.80;99.90
14359;DHT22;7263;49.418;11.064;2022-10-16T05:00:57;14.80;99.90
14359;DHT22;7263;49.418;11.064;2022-10-16T05:03:23;14.80;99.90
14359;DHT22;7263;49.418;11.064;2022-10-16T05:08:18;14.70;99.90
14359;DHT22;7263;49.418;11.064;2022-10-16T05:10:46;14.60;99.90
14359;DHT22;7263;49.418;11.064;2022-10-16T05:13:12;14.70;99.90
14359;DHT22;7263;49.418;11.064;2022-10-16T05:15:39;14.70;99.90
14359;DHT22;7263;49.418;11.064;2022-10-16T05:20:33;14.70;99.90
14359;DHT22;7263;49.418;11.064;2022-10-16T05:23:01;14.60;99.90
14359;DHT22;7263;49.418;11.064;2022-10-16T05:25:28;14.60;99.90
14359;DHT22;7263;49.418;11.064;2022-10-16T05:27:55;14.60;99.90
14359;DHT22;7263;49.418;11.064;2022-10-16T05:32:50;14.60;99.90
14359;DHT22;7263;49.418;11.064;2022-10-16T05:35:18;14.50;99.90
14359;DHT22;7263;49.418;11.064;2022-10-16T05:37:45;14.50;99.90
14359;DHT22;7263;49.418;11.064;2022-10-16T05:40:13;14.50;99.90
14359;DHT22;7263;49.418;11.064;2022-10-16T05:42:40;14.60;99.90
14359;DHT22;7263;49.418;11.064;2022-10-16T05:45:09;14.50;99.90
14359;DHT22;7263;49.418;11.064;2022-10-16T05:47:36;14.60;99.90
14359;DHT22;7263;49.418;11.064;2022-10-16T05:50:04;14.60;99.90
14359;DHT22;7263;49.418;11.064;2022-10-16T05:52:31;14.60;99.90
14359;DHT22;7263;49.418;11.064;2022-10-16T05:57:26;14.60;99.90
14359;DHT22;7263;49.418;11.064;2022-10-16T06:02:20;14.70;99.90
14359;DHT22;7263;49.418;11.064;2022-10-16T06:07:13;14.70;99.90
14359;DHT22;7263;49.418;11.064;2022-10-16T06:12:07;14.80;99.90
14359;DHT22;7263;49.418;11.064;2022-10-16T06:14:35;14.80;99.90
14359;DHT22;7263;49.418;11.064;2022-10-16T06:17:02;14.90;99.90
14359;DHT22;7263;49.418;11.064;2022-10-16T06:24:24;15.00;99.90
14359;DHT22;7263;49.418;11.064;2022-10-16T06:26:51;15.00;99.90
14359;DHT22;7263;49.418;11.064;2022-10-16T06:29:17;15.10;99.90
14359;DHT22;7263;49.418;11.064;2022-10-16T06:31:45;15.10;99.90
14359;DHT22;7263;49.418;11.064;2022-10-16T06:34:12;15.20;99.90
14359;DHT22;7263;49.418;11.064;2022-10-16T06:39:07;15.30;99.90
14359;DHT22;7263;49.418;11.064;2022-10-16T06:44:01;15.40;99.90
14359;DHT22;7263;49.418;11.064;2022-10-16T06:48:56;15.50;99.90
14359;DHT22;7263;49.418;11.064;2022-10-16T06:51:24;15.50;99.90
14359;DHT22;7263;49.418;11.064;2022-10-16T06:53:52;15.50;99.90
14359;DHT22;7263;49.418;11.064;2022-10-16T06:56:21;15.60;99.90
14359;DHT22;7263;49.418;11.064;2022-10-16T07:01:17;15.60;99.90
14359;DHT22;7263;49.418;11.064;2022-10-16T07:03:45;15.60;99.90
14359;DHT22;7263;49.418;11.064;2022-10-16T07:06:15;15.60;99.90
14359;DHT22;7263;49.418;11.064;2022-10-16T07:08:44;15.60;99.90
14359;DHT22;7263;49.418;11.064;2022-10-16T07:11:12;15.60;99.90
14359;DHT22;7263;49.418;11.064;2022-10-16T07:13:41;15.60;99.90
14359;DHT22;7263;49.418;11.064;2022-10-16T07:16:10;15.60;99.90
14359;DHT22;7263;49.418;11.064;2022-10-16T07:18:38;15.70;99.90
14359;DHT22;7263;49.418;11.064;2022-10-16T07:21:06;15.70;99.90
14359;DHT22;7263;49.418;11.064;2022-10-16T07:23:34;15.70;99.90
14359;DHT22;7263;49.418;11.064;2022-10-16T07:28:29;15.70;99.90
14359;DHT22;7263;49.418;11.064;2022-10-16T07:31:00;15.70;99.90
14359;DHT22;7263;49.418;11.064;2022-10-16T07:33:27;15.80;99.90
14359;DHT22;7263;49.418;11.064;2022-10-16T07:38:21;15.80;99.90
14359;DHT22;7263;49.418;11.064;2022-10-16T07:40:56;15.80;99.90
14359;DHT22;7263;49.418;11.064;2022-10-16T07:45:50;15.80;99.90
14359;DHT22;7263;49.418;11.064;2022-10-16T07:48:18;15.90;99.90
14359;DHT22;7263;49.418;11.064;2022-10-16T07:53:12;16.00;99.90
14359;DHT22;7263;49.418;11.064;2022-10-16T07:58:07;16.00;99.90
14359;DHT22;7263;49.418;11.064;2022-10-16T08:00:36;16.10;99.90
14359;DHT22;7263;49.418;11.064;2022-10-16T08:03:03;16.10;99.90
14359;DHT22;7263;49.418;11.064;2022-10-16T08:05:32;16.20;99.90
14359;DHT22;7263;49.418;11.064;2022-10-16T08:08:00;16.20;99.90
14359;DHT22;7263;49.418;11.064;2022-10-16T08:10:28;16.20;99.90
14359;DHT22;7263;49.418;11.064;2022-10-16T08:12:57;16.30;99.90
14359;DHT22;7263;49.418;11.064;2022-10-16T08:15:25;16.40;99.90
14359;DHT22;7263;49.418;11.064;2022-10-16T08:17:57;16.40;99.90
14359;DHT22;7263;49.418;11.064;2022-10-16T08:20:24;16.40;99.90
14359;DHT22;7263;49.418;11.064;2022-10-16T08:22:51;16.50;99.90
14359;DHT22;7263;49.418;11.064;2022-10-16T08:25:18;16.50;99.90
14359;DHT22;7263;49.418;11.064;2022-10-16T08:27:44;16.60;99.90
14359;DHT22;7263;49.418;11.064;2022-10-16T08:30:11;16.70;99.90
14359;DHT22;7263;49.418;11.064;2022-10-16T08:32:40;16.80;99.90
14359;DHT22;7263;49.418;11.064;2022-10-16T08:35:08;17.00;99.90
14359;DHT22;7263;49.418;11.064;2022-10-16T08:37:35;17.10;99.90
14359;DHT22;7263;49.418;11.064;2022-10-16T08:40:03;17.20;99.90
14359;DHT22;7263;49.418;11.064;2022-10-16T08:42:44;17.30;99.90
14359;DHT22;7263;49.418;11.064;2022-10-16T08:45:40;17.40;99.90
14359;DHT22;7263;49.418;11.064;2022-10-16T08:48:17;17.40;99.90
14359;DHT22;7263;49.418;11.064;2022-10-16T08:50:45;17.50;99.90
14359;DHT22;7263;49.418;11.064;2022-10-16T08:53:17;17.70;99.90
14359;DHT22;7263;49.418;11.064;2022-10-16T08:55:48;17.70;99.90
14359;DHT22;7263;49.418;11.064;2022-10-16T08:58:17;17.80;99.90
14359;DHT22;7263;49.418;11.064;2022-10-16T09:00:47;17.80;99.90
14359;DHT22;7263;49.418;11.064;2022-10-16T09:03:22;17.80;99.90
14359;DHT22;7263;49.418;11.064;2022-10-16T09:06:17;17.90;99.90
14359;DHT22;7263;49.418;11.064;2022-10-16T09:08:59;18.10;99.90
14359;DHT22;7263;49.418;11.064;2022-10-16T09:11:38;18.30;99.90
14359;DHT22;7263;49.418;11.064;2022-10-16T09:14:20;18.30;99.90
14359;DHT22;7263;49.418;11.064;2022-10-16T09:16:55;18.40;99.90
14359;DHT22;7263;49.418;11.064;2022-10-16T09:19:36;18.50;99.90
14359;DHT22;7263;49.418;11.064;2022-10-16T09:22:12;18.60;99.90
14359;DHT22;7263;49.418;11.064;2022-10-16T09:24:39;18.70;99.90
14359;DHT22;7263;49.418;11.064;2022-10-16T09:27:08;18.80;99.90
14359;DHT22;7263;49.418;11.064;2022-10-16T09:29:36;18.90;99.90
14359;DHT22;7263;49.418;11.064;2022-10-16T09:32:11;18.90;99.90
14359;DHT22;7263;49.418;11.064;2022-10-16T09:34:43;18.80;99.90
14359;DHT22;7263;49.418;11.064;2022-10-16T09:37:14;18.70;99.90
14359;DHT22;7263;49.418;11.064;2022-10-16T09:39:46;18.50;99.90
14359;DHT22;7263;49.418;11.064;2022-10-16T09:42:16;18.40;99.90
14359;DHT22;7263;49.418;11.064;2022-10-16T09:44:47;18.30;99.90
14359;DHT22;7263;49.418;11.064;2022-10-16T09:47:17;18.10;99.90
14359;DHT22;7263;49.418;11.064;2022-10-16T09:49:55;18.00;99.90
14359;DHT22;7263;49.418;11.064;2022-10-16T09:54:51;17.80;99.90
14359;DHT22;7263;49.418;11.064;2022-10-16T09:57:19;17.80;99.90
14359;DHT22;7263;49.418;11.064;2022-10-16T09:59:47;17.70;99.90
14359;DHT22;7263;49.418;11.064;2022-10-16T10:02:15;17.70;99.90
14359;DHT22;7263;49.418;11.064;2022-10-16T10:04:49;17.80;99.90
14359;DHT22;7263;49.418;11.064;2022-10-16T10:07:21;17.90;99.90
14359;DHT22;7263;49.418;11.064;2022-10-16T10:09:50;18.00;99.90
14359;DHT22;7263;49.418;11.064;2022-10-16T10:12:19;18.20;99.90
14359;DHT22;7263;49.418;11.064;2022-10-16T10:14:48;18.40;99.90
14359;DHT22;7263;49.418;11.064;2022-10-16T10:17:17;18.50;99.90
14359;DHT22;7263;49.418;11.064;2022-10-16T10:19:55;18.80;99.90
14359;DHT22;7263;49.418;11.064;2022-10-16T10:22:32;19.10;99.90
14359;DHT22;7263;49.418;11.064;2022-10-16T10:25:29;19.30;99.90
14359;DHT22;7263;49.418;11.064;2022-10-16T10:28:17;19.50;99.90
14359;DHT22;7263;49.418;11.064;2022-10-16T10:30:50;19.60;99.90
14359;DHT22;7263;49.418;11.064;2022-10-16T10:33:27;19.70;99.90
14359;DHT22;7263;49.418;11.064;2022-10-16T10:36:01;19.70;99.90
14359;DHT22;7263;49.418;11.064;2022-10-16T10:38:39;19.70;99.90
14359;DHT22;7263;49.418;11.064;2022-10-16T10:41:28;19.70;99.90
14359;DHT22;7263;49.418;11.064;2022-10-16T10:44:05;19.80;99.90
14359;DHT22;7263;49.418;11.064;2022-10-16T10:46:35;20.00;99.90
14359;DHT22;7263;49.418;11.064;2022-10-16T10:49:17;20.20;99.90
14359;DHT22;7263;49.418;11.064;2022-10-16T10:51:53;20.30;99.90
14359;DHT22;7263;49.418;11.064;2022-10-16T10:54:31;20.40;99.90
14359;DHT22;7263;49.418;11.064;2022-10-16T10:57:06;20.60;99.90
14359;DHT22;7263;49.418;11.064;2022-10-16T10:59:48;20.70;99.90
14359;DHT22;7263;49.418;11.064;2022-10-16T11:02:25;20.70;99.90
14359;DHT22;7263;49.418;11.064;2022-10-16T11:05:18;20.60;99.90
14359;DHT22;7263;49.418;11.064;2022-10-16T11:07:50;20.50;99.90
14359;DHT22;7263;49.418;11.064;2022-10-16T11:10:22;20.40;99.90
14359;DHT22;7263;49.418;11.064;2022-10-16T11:12:54;20.30;99.90
14359;DHT22;7263;49.418;11.064;2022-10-16T11:15:24;20.40;99.90
14359;DHT22;7263;49.418;11.064;2022-10-16T11:17:54;20.30;99.90
14359;DHT22;7263;49.418;11.064;2022-10-16T11:20:24;20.20;99.90
14359;DHT22;7263;49.418;11.064;2022-10-16T11:22:55;20.20;99.90
14359;DHT22;7263;49.418;11.064;2022-10-16T11:25:27;20.30;99.90
14359;DHT22;7263;49.418;11.064;2022-10-16T11:27:58;20.40;99.90
14359;DHT22;7263;49.418;11.064;2022-10-16T11:30:30;20.40;99.90
14359;DHT22;7263;49.418;11.064;2022-10-16T11:33:04;20.50;99.90
14359;DHT22;7263;49.418;11.064;2022-10-16T11:35:42;20.50;99.90
14359;DHT22;7263;49.418;11.064;2022-10-16T11:38:18;20.70;99.90
14359;DHT22;7263;49.418;11.064;2022-10-16T11:40:50;20.80;99.90
14359;DHT22;7263;49.418;11.064;2022-10-16T11:43:22;20.90;99.90
14359;DHT22;7263;49.418;11.064;2022-10-16T11:45:53;21.10;99.90
14359;DHT22;7263;49.418;11.064;2022-10-16T11:48:27;21.10;99.90
14359;DHT22;7263;49.418;11.064;2022-10-16T11:50:57;21.60;99.90
14359;DHT22;7263;49.418;11.064;2022-10-16T11:53:35;21.70;99.90
14359;DHT22;7263;49.418;11.064;2022-10-16T11:56:05;21.60;99.90
14359;DHT22;7263;49.418;11.064;2022-10-16T11:58:36;21.70;99.90
14359;DHT22;7263;49.418;11.064;2022-10-16T12:01:16;21.80;99.90
14359;DHT22;7263;49.418;11.064;2022-10-16T12:03:46;21.80;99.90
14359;DHT22;7263;49.418;11.064;2022-10-16T12:06:25;21.80;99.90
14359;DHT22;7263;49.418;11.064;2022-10-16T12:11:35;21.80;99.90
14359;DHT22;7263;49.418;11.064;2022-10-16T12:14:17;21.80;99.90
14359;DHT22;7263;49.418;11.064;2022-10-16T12:16:52;21.80;99.90
14359;DHT22;7263;49.418;11.064;2022-10-16T12:19:21;21.80;99.90
14359;DHT22;7263;49.418;11.064;2022-10-16T12:21:48;21.70;99.90
14359;DHT22;7263;49.418;11.064;2022-10-16T12:24:31;21.70;99.90
14359;DHT22;7263;49.418;11.064;2022-10-16T12:27:00;21.70;99.90
14359;DHT22;7263;49.418;11.064;2022-10-16T12:29:36;21.60;99.90
14359;DHT22;7263;49.418;11.064;2022-10-16T12:32:05;21.60;99.90
14359;DHT22;7263;49.418;11.064;2022-10-16T12:34:38;21.40;99.90
14359;DHT22;7263;49.418;11.064;2022-10-16T12:37:13;21.40;99.90
14359;DHT22;7263;49.418;11.064;2022-10-16T12:39:40;21.30;99.90
14359;DHT22;7263;49.418;11.064;2022-10-16T12:42:22;21.30;99.90
14359;DHT22;7263;49.418;11.064;2022-10-16T12:44:50;21.30;99.90
14359;DHT22;7263;49.418;11.064;2022-10-16T12:47:21;21.30;99.90
14359;DHT22;7263;49.418;11.064;2022-10-16T12:49:50;21.40;99.90
14359;DHT22;7263;49.418;11.064;2022-10-16T12:52:27;21.50;99.90
14359;DHT22;7263;49.418;11.064;2022-10-16T12:54:57;21.50;99.90
14359;DHT22;7263;49.418;11.064;2022-10-16T12:57:36;21.60;99.90
14359;DHT22;7263;49.418;11.064;2022-10-16T13:00:13;21.60;99.90
14359;DHT22;7263;49.418;11.064;2022-10-16T13:03:01;21.70;99.90
14359;DHT22;7263;49.418;11.064;2022-10-16T13:05:38;21.70;99.90
14359;DHT22;7263;49.418;11.064;2022-10-16T13:08:23;21.80;99.90
14359;DHT22;7263;49.418;11.064;2022-10-16T13:11:00;21.80;99.90
14359;DHT22;7263;49.418;11.064;2022-10-16T13:13:44;21.90;99.90
14359;DHT22;7263;49.418;11.064;2022-10-16T13:16:21;21.90;99.90
14359;DHT22;7263;49.418;11.064;2022-10-16T13:18:59;21.80;99.90
14359;DHT22;7263;49.418;11.064;2022-10-16T13:21:38;21.90;99.90
14359;DHT22;7263;49.418;11.064;2022-10-16T13:24:15;21.90;99.90
14359;DHT22;7263;49.418;11.064;2022-10-16T13:26:48;21.70;99.90
14359;DHT22;7263;49.418;11.064;2022-10-16T13:29:18;21.60;99.90
14359;DHT22;7263;49.418;11.064;2022-10-16T13:31:46;21.60;99.90
14359;DHT22;7263;49.418;11.064;2022-10-16T13:34:15;21.50;99.90
14359;DHT22;7263;49.418;11.064;2022-10-16T13:36:45;21.50;99.90
14359;DHT22;7263;49.418;11.064;2022-10-16T13:39:14;21.40;99.90
14359;DHT22;7263;49.418;11.064;2022-10-16T13:44:15;21.50;99.90
14359;DHT22;7263;49.418;11.064;2022-10-16T13:46:43;21.50;99.90
14359;DHT22;7263;49.418;11.064;2022-10-16T13:49:14;21.60;99.90
14359;DHT22;7263;49.418;11.064;2022-10-16T13:54:10;21.60;99.90
14359;DHT22;7263;49.418;11.064;2022-10-16T13:56:39;21.50;99.90
14359;DHT22;7263;49.418;11.064;2022-10-16T13:59:20;21.60;99.90
14359;DHT22;7263;49.418;11.064;2022-10-16T14:01:51;21.50;99.90
14359;DHT22;7263;49.418;11.064;2022-10-16T14:04:20;21.50;99.90
14359;DHT22;7263;49.418;11.064;2022-10-16T14:06:49;21.40;99.90
14359;DHT22;7263;49.418;11.064;2022-10-16T14:09:22;21.40;99.90
14359;DHT22;7263;49.418;11.064;2022-10-16T14:11:50;21.30;99.90
14359;DHT22;7263;49.418;11.064;2022-10-16T14:14:18;21.20;99.90
14359;DHT22;7263;49.418;11.064;2022-10-16T14:16:45;21.20;99.90
14359;DHT22;7263;49.418;11.064;2022-10-16T14:19:19;21.20;99.90
14359;DHT22;7263;49.418;11.064;2022-10-16T14:24:25;21.20;99.90
14359;DHT22;7263;49.418;11.064;2022-10-16T14:26:52;21.30;99.90
14359;DHT22;7263;49.418;11.064;2022-10-16T14:31:56;21.30;99.90
14359;DHT22;7263;49.418;11.064;2022-10-16T14:34:30;21.20;99.90
14359;DHT22;7263;49.418;11.064;2022-10-16T14:39:28;21.20;99.90
14359;DHT22;7263;49.418;11.064;2022-10-16T14:44:28;21.10;99.90
14359;DHT22;7263;49.418;11.064;2022-10-16T14:51:51;21.10;99.90
14359;DHT22;7263;49.418;11.064;2022-10-16T14:59:17;21.10;99.90
14359;DHT22;7263;49.418;11.064;2022-10-16T15:01:44;21.10;99.90
14359;DHT22;7263;49.418;11.064;2022-10-16T15:04:12;21.20;99.90
14359;DHT22;7263;49.418;11.064;2022-10-16T15:09:07;21.10;99.90
14359;DHT22;7263;49.418;11.064;2022-10-16T15:11:34;21.10;99.90
14359;DHT22;7263;49.418;11.064;2022-10-16T15:16:29;21.10;99.90
14359;DHT22;7263;49.418;11.064;2022-10-16T15:18:56;21.10;99.90
14359;DHT22;7263;49.418;11.064;2022-10-16T15:21:25;21.00;99.90
14359;DHT22;7263;49.418;11.064;2022-10-16T15:23:52;21.10;99.90
14359;DHT22;7263;49.418;11.064;2022-10-16T15:26:21;21.00;99.90
14359;DHT22;7263;49.418;11.064;2022-10-16T15:28:47;20.90;99.90
14359;DHT22;7263;49.418;11.064;2022-10-16T15:36:09;20.60;99.90
14359;DHT22;7263;49.418;11.064;2022-10-16T15:41:03;20.50;99.90
14359;DHT22;7263;49.418;11.064;2022-10-16T15:43:31;20.50;99.90
14359;DHT22;7263;49.418;11.064;2022-10-16T15:46:00;20.50;99.90
14359;DHT22;7263;49.418;11.064;2022-10-16T15:48:27;20.50;99.90
14359;DHT22;7263;49.418;11.064;2022-10-16T15:50:54;20.30;99.90
14359;DHT22;7263;49.418;11.064;2022-10-16T15:53:21;20.30;99.90
14359;DHT22;7263;49.418;11.064;2022-10-16T15:55:48;20.20;99.90
14359;DHT22;7263;49.418;11.064;2022-10-16T15:58:15;20.10;99.90
14359;DHT22;7263;49.418;11.064;2022-10-16T16:00:43;19.80;99.90
14359;DHT22;7263;49.418;11.064;2022-10-16T16:03:09;19.80;99.90
14359;DHT22;7263;49.418;11.064;2022-10-16T16:05:38;19.60;99.90
14359;DHT22;7263;49.418;11.064;2022-10-16T16:08:05;19.40;99.90
14359;DHT22;7263;49.418;11.064;2022-10-16T16:10:32;19.40;99.90
14359;DHT22;7263;49.418;11.064;2022-10-16T16:12:59;19.40;99.90
14359;DHT22;7263;49.418;11.064;2022-10-16T16:15:25;19.30;99.90
14359;DHT22;7263;49.418;11.064;2022-10-16T16:17:54;19.20;99.90
14359;DHT22;7263;49.418;11.064;2022-10-16T16:22:47;19.20;99.90
14359;DHT22;7263;49.418;11.064;2022-10-16T16:25:14;19.20;99.90
14359;DHT22;7263;49.418;11.064;2022-10-16T16:27:41;19.20;99.90
14359;DHT22;7263;49.418;11.064;2022-10-16T16:30:10;19.10;99.90
14359;DHT22;7263;49.418;11.064;2022-10-16T16:32:37;19.20;99.90
14359;DHT22;7263;49.418;11.064;2022-10-16T16:35:06;19.20;99.90
14359;DHT22;7263;49.418;11.064;2022-10-16T16:37:33;19.30;99.90
14359;DHT22;7263;49.418;11.064;2022-10-16T16:39:59;19.10;99.90
14359;DHT22;7263;49.418;11.064;2022-10-16T16:42:27;19.10;99.90
14359;DHT22;7263;49.418;11.064;2022-10-16T16:47:21;19.00;99.90
14359;DHT22;7263;49.418;11.064;2022-10-16T16:49:48;19.00;99.90
14359;DHT22;7263;49.418;11.064;2022-10-16T16:52:16;18.90;99.90
14359;DHT22;7263;49.418;11.064;2022-10-16T16:54:42;18.90;99.90
14359;DHT22;7263;49.418;11.064;2022-10-16T16:57:16;18.80;99.90
14359;DHT22;7263;49.418;11.064;2022-10-16T16:59:43;15.10;99.90
14359;DHT22;7263;49.418;11.064;2022-10-16T17:02:10;18.70;99.90
14359;DHT22;7263;49.418;11.064;2022-10-16T17:04:37;18.60;99.90
14359;DHT22;7263;49.418;11.064;2022-10-16T17:07:03;18.60;99.90
14359;DHT22;7263;49.418;11.064;2022-10-16T17:09:33;18.60;99.90
14359;DHT22;7263;49.418;11.064;2022-10-16T17:11:59;18.50;99.90
14359;DHT22;7263;49.418;11.064;2022-10-16T17:14:26;18.50;99.90
14359;DHT22;7263;49.418;11.064;2022-10-16T17:16:53;18.50;99.90
14359;DHT22;7263;49.418;11.064;2022-10-16T17:19:20;18.40;99.90
14359;DHT22;7263;49.418;11.064;2022-10-16T17:21:48;18.40;99.90
14359;DHT22;7263;49.418;11.064;2022-10-16T17:24:16;18.30;99.90
14359;DHT22;7263;49.418;11.064;2022-10-16T17:26:45;18.20;99.90
14359;DHT22;7263;49.418;11.064;2022-10-16T17:29:14;18.30;99.90
14359;DHT22;7263;49.418;11.064;2022-10-16T17:31:41;18.30;99.90
14359;DHT22;7263;49.418;11.064;2022-10-16T17:34:08;18.20;99.90
14359;DHT22;7263;49.418;11.064;2022-10-16T17:36:37;18.20;99.90
14359;DHT22;7263;49.418;11.064;2022-10-16T17:39:10;18.20;99.90
14359;DHT22;7263;49.418;11.064;2022-10-16T17:41:37;18.20;99.90
14359;DHT22;7263;49.418;11.064;2022-10-16T17:44:06;18.20;99.90
14359;DHT22;7263;49.418;11.064;2022-10-16T17:46:34;18.10;99.90
14359;DHT22;7263;49.418;11.064;2022-10-16T17:49:00;18.10;99.90
14359;DHT22;7263;49.418;11.064;2022-10-16T17:51:29;18.10;99.90
14359;DHT22;7263;49.418;11.064;2022-10-16T17:53:58;18.20;99.90
14359;DHT22;7263;49.418;11.064;2022-10-16T17:56:25;18.20;99.90
14359;DHT22;7263;49.418;11.064;2022-10-16T17:58:54;18.10;99.90
14359;DHT22;7263;49.418;11.064;2022-10-16T18:01:25;18.10;99.90
14359;DHT22;7263;49.418;11.064;2022-10-16T18:03:54;18.10;99.90
14359;DHT22;7263;49.418;11.064;2022-10-16T18:06:21;18.00;99.90
14359;DHT22;7263;49.418;11.064;2022-10-16T18:08:48;18.00;99.90
14359;DHT22;7263;49.418;11.064;2022-10-16T18:11:15;18.00;99.90
14359;DHT22;7263;49.418;11.064;2022-10-16T18:13:42;17.90;99.90
14359;DHT22;7263;49.418;11.064;2022-10-16T18:16:11;17.90;99.90
14359;DHT22;7263;49.418;11.064;2022-10-16T18:18:41;18.00;99.90
14359;DHT22;7263;49.418;11.064;2022-10-16T18:21:11;18.00;99.90
14359;DHT22;7263;49.418;11.064;2022-10-16T18:23:38;18.00;99.90
14359;DHT22;7263;49.418;11.064;2022-10-16T18:26:06;18.00;99.90
14359;DHT22;7263;49.418;11.064;2022-10-16T18:28:33;18.00;99.90
14359;DHT22;7263;49.418;11.064;2022-10-16T18:31:01;18.00;99.90
14359;DHT22;7263;49.418;11.064;2022-10-16T18:33:29;18.10;99.90
14359;DHT22;7263;49.418;11.064;2022-10-16T18:36:01;18.00;99.90
14359;DHT22;7263;49.418;11.064;2022-10-16T18:38:28;18.00;99.90
14359;DHT22;7263;49.418;11.064;2022-10-16T18:40:56;18.00;99.90
14359;DHT22;7263;49.418;11.064;2022-10-16T18:43:22;18.00;99.90
14359;DHT22;7263;49.418;11.064;2022-10-16T18:45:56;18.00;99.90
14359;DHT22;7263;49.418;11.064;2022-10-16T18:48:23;18.00;99.90
14359;DHT22;7263;49.418;11.064;2022-10-16T18:50:50;18.00;99.90